関西国際空港の過去48時間の天気

関西国際空港 (Kansai intl)

現在時刻: 7/16 15:42 JST (7/16 06:42 UTC) 以下の時間は現地時間です。

過去48時間のMETAR気象情報
時間 風向 風速(m/s) 視程 気温(℃) 湿度(%) 気圧(hPa) 天気現象
16 15:30 西南西 4 10km以上 31 75 1011
16 15:00 西南西 3 10km以上 31 75 1011
16 14:30 西南西 3 10km以上 33 56 1011
16 14:00 西 3 10km以上 34 56 1011
16 13:30 西 3 9000m 34 53 1011
16 13:00 西 4 9000m 33 59 1011
16 12:30 西 3 9000m 33 56 1011
16 12:00 西 3 9000m 32 67 1012
16 11:30 西 4 9000m 31 70 1012
16 11:00 西 4 9000m 31 70 1013
16 10:30 西 4 9000m 32 71 1013
16 10:00 西 5 9000m 32 67 1013
16 09:49 西南西 4 9000m 32 71 1013
16 09:30 西南西 4 10km以上 30 75 1013
16 09:00 西南西 3 10km以上 30 75 1013
16 08:30 南西 2 10km以上 29 79 1013
16 08:00 南西 2 10km以上 29 79 1013
16 07:30 南西 2 10km以上 28 84 1013
16 07:00 南西 3 10km以上 28 79 1013
16 06:30 西南西 3 9000m 28 84 1013
16 06:00 南西 3 10km以上 27 84 1013
16 05:30 西南西 3 8000m 27 79 1012
16 05:00 西南西 2 10km以上 27 84 1012
16 04:30 西南西 2 10km以上 27 84 1012
16 04:00 南南西 2 10km以上 26 89 1012
16 03:30 2 10km以上 26 89 1012
16 03:00 南南西 3 10km以上 27 84 1012
16 02:30 南南西 3 10km以上 27 84 1012
16 02:00 南南西 3 10km以上 26 89 1012
16 01:30 西南西 3 10km以上 27 79 1012
16 01:00 西南西 3 10km以上 28 74 1012
16 00:30 南西 3 10km以上 28 74 1012
16 00:00 南西 5 10km以上 28 74 1012
15 23:30 南西 4 10km以上 28 74 1012
15 23:00 南西 3 10km以上 28 79 1012
15 22:30 南西 4 10km以上 29 74 1012
15 22:00 西南西 4 10km以上 29 74 1012
15 21:30 西南西 5 10km以上 29 74 1012
15 21:00 南西 5 10km以上 28 79 1012
15 20:30 南西 6 10km以上 29 74 1012
15 20:00 南西 6 10km以上 29 74 1011
15 19:30 西南西 6 10km以上 29 74 1011
15 19:00 南西 5 10km以上 29 74 1011
15 18:30 南西 6 10km以上 29 79 1010
15 18:00 南南西 6 10km以上 30 75 1010
15 17:30 南西 5 10km以上 31 66 1010
15 17:00 南西 6 10km以上 31 66 1010
15 16:30 南西 5 10km以上 32 63 1010
15 16:00 南西 6 10km以上 33 63 1010
15 15:30 南西 6 10km以上 33 59 1010
15 15:00 南西 6 10km以上 33 63 1011
15 14:30 西南西 6 10km以上 33 59 1011
15 14:00 西南西 6 10km以上 34 56 1011
15 13:30 西南西 6 10km以上 33 56 1011
15 13:00 西南西 5 10km以上 33 59 1012
15 12:30 西 4 10km以上 32 67 1012
15 12:00 西 5 10km以上 32 71 1012
15 11:30 西 4 10km以上 32 67 1012
15 11:00 西 4 10km以上 32 67 1012
15 10:30 西 3 10km以上 32 67 1012
15 10:00 西 3 10km以上 31 70 1012
15 09:30 西 3 10km以上 31 70 1012
15 09:00 西 2 10km以上 30 75 1012
15 08:30 西 3 10km以上 30 79 1012
15 08:00 西 2 10km以上 29 84 1012
15 07:30 西 2 10km以上 28 89 1012
15 07:00 西 2 10km以上 28 89 1012
15 06:30 不定 1 10km以上 28 84 1012
15 06:00 西 1 9000m 27 89 1011
15 05:30 西北西 1 6000m 27 89 1011
15 05:00 北北西 1 8000m 27 89 1011
15 04:30 2 9000m 27 89 1011
RJBB 160630Z 24007KT 9999 FEW035 BKN/// 31/26 Q1011 NOSIG
RJBB 160600Z 25005KT 9999 FEW035 BKN/// 31/26 Q1011 NOSIG
RJBB 160530Z 24005KT 9999 FEW035 BKN/// 33/23 Q1011 NOSIG
RJBB 160500Z 26006KT 9999 FEW035 BKN/// 34/24 Q1011 NOSIG
RJBB 160430Z 27006KT 9000 FEW035 BKN/// 34/23 Q1011 NOSIG
RJBB 160400Z 28007KT 9000 FEW035 BKN/// 33/24 Q1011 NOSIG
RJBB 160330Z 27006KT 9000 FEW035 SCT/// 33/23 Q1011 NOSIG
RJBB 160300Z 28006KT 9000 FEW035 SCT/// 32/25 Q1012 NOSIG
RJBB 160230Z 28007KT 9000 FEW035 31/25 Q1012 NOSIG
RJBB 160200Z 28008KT 9000 FEW035 31/25 Q1013 NOSIG
RJBB 160130Z 27008KT 9000 FEW035 32/26 Q1013 NOSIG
RJBB 160100Z 26009KT 9000 FEW035 32/25 Q1013 NOSIG
RJBB 160049Z 25008KT 9000 FEW035 32/26 Q1013 RMK 1CU035 A2992
RJBB 160030Z 25007KT 9999 FEW035 30/25 Q1013 NOSIG
RJBB 160000Z 25006KT 200V260 CAVOK 30/25 Q1013 NOSIG
RJBB 152330Z 22004KT 180V240 CAVOK 29/25 Q1013 NOSIG
RJBB 152300Z 23004KT CAVOK 29/25 Q1013 NOSIG
RJBB 152230Z 22004KT 180V240 CAVOK 28/25 Q1013 NOSIG
RJBB 152200Z 23005KT CAVOK 28/24 Q1013 NOSIG
RJBB 152130Z 24006KT 9000 NSC 28/25 Q1013 NOSIG
RJBB 152100Z 23006KT CAVOK 27/24 Q1013 NOSIG
RJBB 152030Z AUTO 24006KT 8000 NSC 27/23 Q1012 NOSIG
RJBB 152000Z AUTO 24003KT 220V280 9999 NSC 27/24 Q1012 NOSIG
RJBB 151930Z AUTO 24004KT 9999 NSC 27/24 Q1012 NOSIG
RJBB 151900Z AUTO 21004KT 9999 NSC 26/24 Q1012 NOSIG
RJBB 151830Z AUTO 19004KT 9999 NSC 26/24 Q1012 NOSIG
RJBB 151800Z AUTO 21005KT 9999 NSC 27/24 Q1012 NOSIG
RJBB 151730Z AUTO 20006KT 9999 NSC 27/24 Q1012 NOSIG
RJBB 151700Z AUTO 21006KT 9999 NSC 26/24 Q1012 NOSIG
RJBB 151630Z AUTO 25006KT 9999 FEW090 BKN160 //////TCU 27/23 Q1012 NOSIG
RJBB 151600Z AUTO 24005KT 9999 NSC 28/23 Q1012 NOSIG
RJBB 151530Z AUTO 23005KT 9999 NSC 28/23 Q1012 NOSIG
RJBB 151500Z AUTO 22009KT 9999 NSC 28/23 Q1012 NOSIG
RJBB 151430Z AUTO 23007KT 9999 NSC 28/23 Q1012 NOSIG
RJBB 151400Z AUTO 23006KT 9999 NSC 28/24 Q1012 NOSIG
RJBB 151330Z 23008KT CAVOK 29/24 Q1012 NOSIG
RJBB 151300Z 24008KT CAVOK 29/24 Q1012 NOSIG
RJBB 151230Z 24009KT CAVOK 29/24 Q1012 NOSIG
RJBB 151200Z 23009KT CAVOK 28/24 Q1012 NOSIG
RJBB 151130Z 23011KT CAVOK 29/24 Q1012 NOSIG
RJBB 151100Z 23011KT CAVOK 29/24 Q1011 NOSIG
RJBB 151030Z 24011KT 9999 FEW050 29/24 Q1011 NOSIG
RJBB 151000Z 22010KT 9999 FEW050 29/24 Q1011 NOSIG
RJBB 150930Z 22012KT 9999 FEW035 29/25 Q1010 NOSIG
RJBB 150900Z 21011KT 9999 FEW035 30/25 Q1010 NOSIG
RJBB 150830Z 23009KT 9999 FEW030 31/24 Q1010 NOSIG
RJBB 150800Z 23011KT 9999 FEW030 31/24 Q1010 NOSIG
RJBB 150730Z 23010KT 9999 FEW030 32/24 Q1010 NOSIG
RJBB 150700Z 23012KT 9999 FEW030 33/25 Q1010 NOSIG
RJBB 150630Z 23011KT 9999 FEW030 33/24 Q1010 NOSIG
RJBB 150600Z 23011KT 9999 FEW030 33/25 Q1011 NOSIG
RJBB 150530Z 24012KT 9999 FEW030 33/24 Q1011 NOSIG
RJBB 150500Z 24011KT 9999 FEW030 34/24 Q1011 NOSIG
RJBB 150430Z 24011KT 9999 FEW030 33/23 Q1011 NOSIG
RJBB 150400Z 25010KT 9999 FEW030 33/24 Q1012 NOSIG
RJBB 150330Z 28007KT 9999 FEW030 32/25 Q1012 BECMG 22010KT
RJBB 150300Z 26009KT 9999 FEW030 32/26 Q1012 NOSIG
RJBB 150230Z 26008KT 9999 FEW030 32/25 Q1012 NOSIG
RJBB 150200Z 26008KT 9999 FEW030 32/25 Q1012 NOSIG
RJBB 150130Z 28006KT 9999 FEW030 32/25 Q1012 NOSIG
RJBB 150100Z 27006KT 9999 FEW030 31/25 Q1012 NOSIG
RJBB 150030Z 28005KT 9999 FEW030 31/25 Q1012 NOSIG
RJBB 150000Z 28004KT 9999 FEW035 30/25 Q1012 NOSIG
RJBB 142330Z 27005KT 9999 FEW035 30/26 Q1012 NOSIG
RJBB 142300Z 27004KT CAVOK 29/26 Q1012 NOSIG
RJBB 142230Z 28004KT CAVOK 28/26 Q1012 NOSIG
RJBB 142200Z 28003KT CAVOK 28/26 Q1012 NOSIG
RJBB 142130Z VRB01KT CAVOK 28/25 Q1012 NOSIG
RJBB 142100Z 26002KT 9000 NSC 27/25 Q1011 NOSIG
RJBB 142030Z AUTO 30002KT 6000 NSC 27/25 Q1011 NOSIG
RJBB 142000Z AUTO 34002KT 8000 NSC 27/25 Q1011 NOSIG
RJBB 141930Z AUTO 35004KT 9000 NSC 27/25 Q1011 NOSIG